createdAt,value
2023-04-22T00:14:55.291Z,48.5
2023-04-22T00:34:55.270Z,48.5
2023-04-22T00:54:55.273Z,48.5
2023-04-22T01:14:55.275Z,48.6
2023-04-22T01:34:55.257Z,48.6
2023-04-22T01:54:55.185Z,48.6
2023-04-22T02:14:55.156Z,48.7
2023-04-22T02:34:55.131Z,48.7
2023-04-22T02:54:55.126Z,48.7
2023-04-22T03:14:55.070Z,48.8
2023-04-22T03:34:55.056Z,48.8
2023-04-22T03:54:55.038Z,48.8
2023-04-22T04:14:55.002Z,48.9
2023-04-22T04:34:54.956Z,48.9
2023-04-22T04:54:54.979Z,48.6
2023-04-22T05:14:54.913Z,48.6
2023-04-22T05:34:54.919Z,48.5
2023-04-22T05:54:54.902Z,48.4
2023-04-22T06:14:55.042Z,48.8
2023-04-22T06:34:54.865Z,48.9
2023-04-22T06:54:54.821Z,48.9
2023-04-22T07:14:54.895Z,49.4
2023-04-22T07:34:54.756Z,49.2
2023-04-22T07:54:54.746Z,49.1
2023-04-22T08:14:54.801Z,48.9
2023-04-22T08:34:54.693Z,48.8
2023-04-22T08:54:54.713Z,48.8
2023-04-22T09:14:54.714Z,48.7
2023-04-22T09:34:54.700Z,48.7
2023-04-22T09:54:54.602Z,48.7
2023-04-22T10:14:54.560Z,48.8
2023-04-22T10:34:54.545Z,48.9
2023-04-22T10:54:54.509Z,48.9
2023-04-22T11:14:54.568Z,48.9
2023-04-22T11:34:54.465Z,49.0
2023-04-22T11:54:54.444Z,49.1
2023-04-22T12:14:54.389Z,49.1
2023-04-22T12:34:54.468Z,49.1
2023-04-22T12:54:54.346Z,49.1
2023-04-22T13:14:54.310Z,49.1
2023-04-22T13:34:54.307Z,49.1
2023-04-22T13:54:54.408Z,49.1
2023-04-22T14:14:54.261Z,49.1
2023-04-22T14:34:54.247Z,49.6
2023-04-22T14:54:54.236Z,49.3
2023-04-22T15:14:54.199Z,49.6
2023-04-22T15:34:54.171Z,49.6
2023-04-22T15:54:54.118Z,49.4
2023-04-22T16:14:54.101Z,49.0
2023-04-22T16:34:54.103Z,48.9
2023-04-22T16:54:54.058Z,48.8
2023-04-22T17:14:54.070Z,48.8
2023-04-22T17:34:54.142Z,48.9
2023-04-22T17:54:54.036Z,49.0
2023-04-22T18:14:53.951Z,49.0
2023-04-22T18:34:54.004Z,49.0
2023-04-22T18:54:54.042Z,49.1
2023-04-22T19:14:53.992Z,49.5
2023-04-22T19:34:53.888Z,49.8
2023-04-22T19:54:53.822Z,49.9
2023-04-22T20:14:54.008Z,50.2
2023-04-22T20:34:53.789Z,50.4
2023-04-22T20:54:53.773Z,50.7
2023-04-22T21:14:53.713Z,50.8
2023-04-22T21:34:53.811Z,50.8
2023-04-22T21:54:53.819Z,50.9
2023-04-22T22:14:53.788Z,50.9
2023-04-22T22:34:53.621Z,50.9
2023-04-22T22:54:53.603Z,51.0
2023-04-22T23:14:53.668Z,51.1
2023-04-22T23:34:53.548Z,51.1
2023-04-22T23:54:53.582Z,51.2
